Aérodrome :
LOGIN :

S'inscrire | Disclaimer

   EN    FR    IT 

 










Légende :    VFR   VFR Marginal   IFR   IFR Intensif   IFR Très Intensif
Visi : 
Plafond : 
>= 8 km
>= 3000ft
5 à 8 km
1000 à 3000 ft
1500m à 5 km
500 à 1000 ft
800 à 1500m
200 à 500 ft
< 800m
< 200 ft
Symboles :   Orages  Brouillard  Fortes neiges  Fortes précipitations  Vent > 20 kt
SIGMETs :   Divers  Orages  Givrage  Turbulence  Onde Orograph.  Cendres Volcan.






- Altitude de l'aérodrome : 74 ft
- Code IATA : LRH


LFBH - La Rochelle Ile de Ré

DERNIER METAR :
  • 030930Z AUTO 31006KT 280V350 CAVOK 19/11 Q1023 NOSIG

METARs EXPIRÉS :
  • 030900Z AUTO 33006KT 270V020 CAVOK 19/12 Q1023 NOSIG
  • 030830Z AUTO 34006KT CAVOK 18/11 Q1023 BECMG 27012KT
  • 030800Z AUTO 36006KT 320V030 CAVOK 18/11 Q1023 NOSIG
  • 030730Z AUTO 02006KT 330V050 9999 FEW028 OVC068 18/12 Q1023 NOSIG
  • 030700Z AUTO 02008KT 9999 FEW027 OVC060 17/11 Q1023 TEMPO SCT015TCU BKN025
  • 030630Z AUTO 01007KT 9999 FEW024 BKN056 17/12 Q1023 TEMPO SCT015TCU BKN025

TAF TAF LFBH
Valide du 03 à 06h jusqu'au 04 à 06h UTC


030500Z 0306/0406 34010KT 9999 SCT025
PROB30
TEMPO 0306/0308 SCT015TCU BKN025
BECMG 0310/0312 27012KT
TEMPO 0314/0318 30015G25KT
ATIS : +33 5 46 00 13 92



MET'MAP, la Météo Aéronautique d'un coup d'oeil ! - Copyright ORBIFLY Décembre 2007 - Disclaimer

ORBIFLY MET'MAP TEAM :

Programmation & Développement : Alexandra Zaïnal
Sur une idée originale de : Baudouin d'Aumeries
Assistance à la programmation : Marc-Olivier Méhu
Soutien technique & logistique : Manuel Goepfert

Contact : metmap@orbifly.com




SOURCES & CREDITS :

   NOAA